Time;durP1;ratioP1;P1;durP2;ratioP2;P2;SDS_P1;SDS_P2;PMS_P1;PMS_P2;Temp;Humidity;BMP_temperature;BMP_pressure;BME280_temperature;BME280_humidity;BME280_pressure;Samples;Min_cycle;Max_cycle;Signal;HPM_P1;HPM_P2
2022/09/09 00:02:27;;;;;;;;;;;;;;;25.97;nan;100847.03;5052892;28;625;-35
2022/09/09 00:05:31;;;;;;;;;;;;;;;26.11;nan;100851.19;5052935;28;1297;-35
2022/09/09 00:08:22;;;;;;;;;;;;;;;26.01;nan;100843.13;5052463;28;1044;-36
2022/09/09 00:11:12;;;;;;;;;;;;;;;26.01;nan;100843.13;5052072;28;1371;-36
2022/09/09 00:14:00;;;;;;;;;;;;;;;26.01;nan;100840.44;5052596;28;1235;-35
2022/09/09 00:16:50;;;;;;;;;;;;;;;25.95;nan;100847.16;5052607;28;1910;-35
2022/09/09 00:19:50;;;;;;;;;;;;;;;26.08;nan;100842.44;5052744;28;1315;-36
2022/09/09 00:22:36;;;;;;;;;;;;;;;26.05;nan;100840.03;5056436;28;796;-35
2022/09/09 00:25:34;;;;;;;;;;;;;;;26.14;nan;100849.09;5056555;28;1234;-35
2022/09/09 00:28:23;;;;;;;;;;;;;;;25.80;nan;100853.81;5056373;28;897;-35
2022/09/09 00:31:13;;;;;;;;;;;;;;;25.78;nan;100845.06;5056530;28;1351;-35
2022/09/09 00:34:19;;;;;;;;;;;;;;;25.84;nan;100839.22;5056516;28;1231;-35
2022/09/09 00:37:05;;;;;;;;;;;;;;;25.81;nan;100838.63;5056206;28;1926;-35
2022/09/09 00:39:52;;;;;;;;;;;;;;;25.83;nan;100832.22;5056349;28;1319;-37
2022/09/09 00:42:42;;;;;;;;;;;;;;;25.78;nan;100828.22;5056234;28;661;-36
2022/09/09 00:45:51;;;;;;;;;;;;;;;25.73;nan;100825.94;5056032;28;1360;-36
2022/09/09 00:48:39;;;;;;;;;;;;;;;25.75;nan;100828.47;5056109;28;1519;-36
2022/09/09 00:51:43;;;;;;;;;;;;;;;25.65;nan;100824.91;5056223;28;672;-36
2022/09/09 00:54:38;;;;;;;;;;;;;;;25.57;nan;100822.88;5056286;28;1312;-36
2022/09/09 00:57:28;;;;;;;;;;;;;;;25.46;nan;100818.44;5055879;28;1964;-36
2022/09/09 01:00:17;;;;;;;;;;;;;;;25.44;nan;100817.69;5056360;28;1232;-36
2022/09/09 01:03:02;;;;;;;;;;;;;;;25.44;nan;100820.38;5056062;28;613;-35
2022/09/09 01:05:57;;;;;;;;;;;;;;;25.63;nan;100821.50;5055736;28;1253;-34
2022/09/09 01:09:01;;;;;;;;;;;;;;;25.52;nan;100819.75;5055842;28;1049;-35
2022/09/09 01:11:47;;;;;;;;;;;;;;;25.49;nan;100822.69;5055740;28;664;-36
2022/09/09 01:14:36;;;;;;;;;;;;;;;25.58;nan;100813.91;5055871;28;1314;-35
2022/09/09 01:17:25;;;;;;;;;;;;;;;25.56;nan;100815.03;5055548;28;1906;-35
2022/09/09 01:20:18;;;;;;;;;;;;;;;25.49;nan;100814.69;5055885;28;1323;-35
2022/09/09 01:23:11;;;;;;;;;;;;;;;25.70;nan;100809.34;5055912;28;613;-35
2022/09/09 01:26:15;;;;;;;;;;;;;;;25.74;nan;100814.31;5055382;28;1249;-35
2022/09/09 01:29:00;;;;;;;;;;;;;;;25.59;nan;100817.44;5054884;28;1244;-34
2022/09/09 01:31:55;;;;;;;;;;;;;;;25.65;nan;100811.56;5053757;28;621;-35
2022/09/09 01:34:41;;;;;;;;;;;;;;;25.72;nan;100818.06;5053947;28;1283;-34
2022/09/09 01:37:26;;;;;;;;;;;;;;;25.73;nan;100814.44;5055270;28;1902;-34
2022/09/09 01:40:11;;;;;;;;;;;;;;;25.80;nan;100818.28;5055189;28;1376;-34
2022/09/09 01:42:57;;;;;;;;;;;;;;;25.79;nan;100806.75;5055132;28;807;-35
2022/09/09 01:45:43;;;;;;;;;;;;;;;25.63;nan;100808.16;5081852;28;1169;-35
2022/09/09 01:48:29;;;;;;;;;;;;;;;25.53;nan;100816.94;5055135;28;1551;-34
2022/09/09 01:51:15;;;;;;;;;;;;;;;25.61;nan;100804.81;5055278;28;1217;-34
2022/09/09 01:54:01;;;;;;;;;;;;;;;25.49;nan;100806.69;5054671;28;1220;-35
2022/09/09 01:56:54;;;;;;;;;;;;;;;25.67;nan;100809.63;5054494;28;1910;-35
2022/09/09 01:59:58;;;;;;;;;;;;;;;25.52;nan;100809.94;5054742;28;1295;-36
2022/09/09 02:03:02;;;;;;;;;;;;;;;25.53;nan;100811.63;5054411;28;637;-35
2022/09/09 02:05:57;;;;;;;;;;;;;;;25.44;nan;100812.34;5053650;28;1339;-36
2022/09/09 02:08:48;;;;;;;;;;;;;;;25.54;nan;100810.66;5054488;28;1135;-35
2022/09/09 02:11:34;;;;;;;;;;;;;;;25.65;nan;100808.91;5054527;28;637;-36
2022/09/09 02:14:24;;;;;;;;;;;;;;;25.64;nan;100804.53;5054476;28;1224;-35
2022/09/09 02:17:11;;;;;;;;;;;;;;;25.34;nan;100800.78;5054275;28;1972;-35
2022/09/09 02:20:05;;;;;;;;;;;;;;;25.24;nan;100809.69;5054050;28;1418;-36
2022/09/09 02:22:52;;;;;;;;;;;;;;;25.39;nan;100803.91;5054147;28;749;-35
2022/09/09 02:25:39;;;;;;;;;;;;;;;25.35;nan;100810.47;5054458;28;1288;-35
2022/09/09 02:28:27;;;;;;;;;;;;;;;25.40;nan;100808.28;5053953;28;1039;-36
2022/09/09 02:31:14;;;;;;;;;;;;;;;25.45;nan;100808.72;5054166;28;1260;-36
2022/09/09 02:34:01;;;;;;;;;;;;;;;25.22;nan;100798.31;5054217;28;1323;-35
2022/09/09 02:36:49;;;;;;;;;;;;;;;25.22;nan;100800.97;5053802;28;1902;-35
2022/09/09 02:39:34;;;;;;;;;;;;;;;25.45;nan;100806.06;5053947;28;1236;-35
2022/09/09 02:42:19;;;;;;;;;;;;;;;25.49;nan;100802.22;5053572;28;656;-35
2022/09/09 02:45:05;;;;;;;;;;;;;;;25.43;nan;100793.84;5052727;28;1228;-36
2022/09/09 02:48:11;;;;;;;;;;;;;;;25.50;nan;100787.06;5053976;28;1389;-36
2022/09/09 02:51:15;;;;;;;;;;;;;;;25.46;nan;100791.75;5053643;28;1201;-36
2022/09/09 02:54:07;;;;;;;;;;;;;;;25.26;nan;100797.91;5053664;28;1237;-35
2022/09/09 02:56:54;;;;;;;;;;;;;;;25.20;nan;100801.09;5053597;28;1906;-35
2022/09/09 02:59:39;;;;;;;;;;;;;;;25.13;nan;100807.91;5052613;28;1217;-35
2022/09/09 03:02:25;;;;;;;;;;;;;;;25.19;nan;100806.56;5053642;28;617;-36
2022/09/09 03:05:10;;;;;;;;;;;;;;;25.31;nan;100809.06;5053373;28;1299;-35
2022/09/09 03:07:56;;;;;;;;;;;;;;;25.37;nan;100803.22;5053385;28;696;-35
2022/09/09 03:10:42;;;;;;;;;;;;;;;25.35;nan;100798.97;5053641;28;1321;-36
2022/09/09 03:13:27;;;;;;;;;;;;;;;25.22;nan;100801.81;5053353;28;1028;-34
2022/09/09 03:16:12;;;;;;;;;;;;;;;25.19;nan;100804.75;5053210;28;1295;-35
2022/09/09 03:18:57;;;;;;;;;;;;;;;25.37;nan;100802.34;5053481;28;1990;-36
2022/09/09 03:21:43;;;;;;;;;;;;;;;25.50;nan;100800.38;5053236;28;663;-36
2022/09/09 03:24:28;;;;;;;;;;;;;;;25.46;nan;100806.91;5053295;28;1315;-35
2022/09/09 03:27:14;;;;;;;;;;;;;;;25.33;nan;100796.44;5052232;28;696;-35
2022/09/09 03:30:03;;;;;;;;;;;;;;;25.45;nan;100789.22;5053311;28;1177;-36
2022/09/09 03:32:49;;;;;;;;;;;;;;;25.19;nan;100794.06;5053010;28;629;-36
2022/09/09 03:35:34;;;;;;;;;;;;;;;25.15;nan;100794.44;5052933;28;1312;-36
2022/09/09 03:38:20;;;;;;;;;;;;;;;25.15;nan;100800.63;5052623;28;1994;-36
2022/09/09 03:41:05;;;;;;;;;;;;;;;25.19;nan;100798.56;5053143;28;1339;-36
2022/09/09 03:43:51;;;;;;;;;;;;;;;24.95;nan;100804.09;5052772;28;944;-35
2022/09/09 03:46:37;;;;;;;;;;;;;;;24.85;nan;100809.34;5052837;28;1456;-36
2022/09/09 03:49:24;;;;;;;;;;;;;;;24.85;nan;100801.34;5052930;28;1301;-34
2022/09/09 03:52:09;;;;;;;;;;;;;;;24.77;nan;100801.09;5052653;28;653;-35
2022/09/09 03:54:56;;;;;;;;;;;;;;;24.85;nan;100800.50;5052713;28;1303;-36
2022/09/09 03:57:42;;;;;;;;;;;;;;;24.76;nan;100801.19;5052584;28;1906;-35
2022/09/09 04:00:28;;;;;;;;;;;;;;;24.58;nan;100795.56;5051586;28;1200;-35
2022/09/09 04:03:14;;;;;;;;;;;;;;;24.74;nan;100798.69;5052405;28;664;-35
2022/09/09 04:06:00;;;;;;;;;;;;;;;24.92;nan;100804.34;5052377;28;1371;-35
2022/09/09 04:08:48;;;;;;;;;;;;;;;24.95;nan;100798.78;5052428;28;1133;-34
2022/09/09 04:11:33;;;;;;;;;;;;;;;25.03;nan;100798.97;5052852;28;577;-36
2022/09/09 04:14:19;;;;;;;;;;;;;;;25.00;nan;100805.41;5052699;28;1212;-35
2022/09/09 04:17:06;;;;;;;;;;;;;;;24.84;nan;100810.28;5051905;28;1902;-35
2022/09/09 04:19:51;;;;;;;;;;;;;;;24.58;nan;100803.53;5052508;28;1209;-34
2022/09/09 04:22:38;;;;;;;;;;;;;;;24.46;nan;100797.41;5052195;28;503;-35
2022/09/09 04:25:23;;;;;;;;;;;;;;;24.48;nan;100798.09;5052642;28;1244;-34
2022/09/09 04:28:09;;;;;;;;;;;;;;;24.39;nan;100804.16;5052112;28;696;-36
2022/09/09 04:30:54;;;;;;;;;;;;;;;24.43;nan;100800.31;5052078;28;1249;-35
2022/09/09 04:33:40;;;;;;;;;;;;;;;24.27;nan;100802.47;5052233;28;1033;-35
2022/09/09 04:36:25;;;;;;;;;;;;;;;24.31;nan;100806.59;5052129;28;645;-36
2022/09/09 04:39:10;;;;;;;;;;;;;;;24.32;nan;100810.94;5052214;28;1961;-35
2022/09/09 04:41:56;;;;;;;;;;;;;;;24.32;nan;100808.28;5052181;28;620;-35
2022/09/09 04:44:41;;;;;;;;;;;;;;;24.47;nan;100814.19;5052580;28;1241;-34
2022/09/09 04:47:26;;;;;;;;;;;;;;;24.34;nan;100806.34;5052079;28;1473;-35
2022/09/09 04:50:12;;;;;;;;;;;;;;;24.24;nan;100805.38;5052521;28;1275;-36
2022/09/09 04:53:04;;;;;;;;;;;;;;;24.31;nan;100811.94;5051952;28;680;-35
2022/09/09 04:55:50;;;;;;;;;;;;;;;24.37;nan;100816.75;5079062;28;1199;-36
2022/09/09 04:58:36;;;;;;;;;;;;;;;24.27;nan;100809.63;5052084;28;1967;-35
2022/09/09 05:01:24;;;;;;;;;;;;;;;24.28;nan;100813.97;5052090;28;637;-36
2022/09/09 05:04:10;;;;;;;;;;;;;;;24.24;nan;100821.34;5046119;28;1272;-35
2022/09/09 05:06:55;;;;;;;;;;;;;;;24.20;nan;100830.53;5051142;28;1011;-35
2022/09/09 05:09:40;;;;;;;;;;;;;;;24.31;nan;100822.56;5055109;28;1228;-35
2022/09/09 05:12:26;;;;;;;;;;;;;;;24.34;nan;100827.66;5054821;28;992;-34
2022/09/09 05:15:11;;;;;;;;;;;;;;;24.33;nan;100836.59;5053647;28;1315;-35
2022/09/09 05:18:00;;;;;;;;;;;;;;;24.24;nan;100845.31;5054095;28;1917;-35
2022/09/09 05:20:46;;;;;;;;;;;;;;;24.29;nan;100845.78;5054806;28;1252;-35
2022/09/09 05:23:31;;;;;;;;;;;;;;;24.38;nan;100850.38;5054532;28;989;-35
2022/09/09 05:26:18;;;;;;;;;;;;;;;24.33;nan;100847.25;5067444;28;1248;-36
2022/09/09 05:29:03;;;;;;;;;;;;;;;24.23;nan;100840.09;5034676;28;1193;-36
2022/09/09 05:31:49;;;;;;;;;;;;;;;24.18;nan;100847.59;5037610;28;983;-35
2022/09/09 05:34:34;;;;;;;;;;;;;;;24.11;nan;100849.88;5054598;28;1292;-35
2022/09/09 05:37:20;;;;;;;;;;;;;;;24.23;nan;100856.91;5054162;28;1977;-36
2022/09/09 05:40:06;;;;;;;;;;;;;;;24.18;nan;100851.13;5054363;28;1256;-34
2022/09/09 05:42:53;;;;;;;;;;;;;;;24.22;nan;100852.59;5053980;28;991;-35
2022/09/09 05:45:38;;;;;;;;;;;;;;;24.23;nan;100854.25;5054648;28;1268;-35
2022/09/09 05:48:24;;;;;;;;;;;;;;;24.32;nan;100852.69;5053815;28;1178;-35
2022/09/09 05:51:15;;;;;;;;;;;;;;;24.20;nan;100857.16;5054358;28;1260;-34
2022/09/09 05:54:00;;;;;;;;;;;;;;;24.16;nan;100857.53;5034032;28;1209;-35
2022/09/09 05:56:46;;;;;;;;;;;;;;;24.39;nan;100860.06;5064219;28;1140;-35
2022/09/09 05:59:36;;;;;;;;;;;;;;;24.30;nan;100854.63;5054213;28;1907;-36
2022/09/09 06:02:21;;;;;;;;;;;;;;;24.48;nan;100861.16;5054469;28;553;-35
2022/09/09 06:05:06;;;;;;;;;;;;;;;24.53;nan;100868.81;5054892;28;1252;-35
2022/09/09 06:07:52;;;;;;;;;;;;;;;24.45;nan;100870.25;5053778;28;688;-36
2022/09/09 06:10:37;;;;;;;;;;;;;;;24.41;nan;100868.78;5052361;28;1296;-36
2022/09/09 06:13:23;;;;;;;;;;;;;;;24.43;nan;100872.19;5051059;28;1134;-35
2022/09/09 06:16:11;;;;;;;;;;;;;;;24.68;nan;100870.25;5049894;28;1391;-36
2022/09/09 06:18:59;;;;;;;;;;;;;;;24.76;nan;100867.81;5050676;28;1914;-35
2022/09/09 06:21:44;;;;;;;;;;;;;;;24.81;nan;100870.97;5050776;28;994;-35
2022/09/09 06:24:30;;;;;;;;;;;;;;;24.63;nan;100867.94;5051960;28;1218;-36
2022/09/09 06:27:15;;;;;;;;;;;;;;;24.66;nan;100869.50;5050289;28;1017;-36
2022/09/09 06:30:02;;;;;;;;;;;;;;;24.88;nan;100869.50;5050778;28;1253;-36
2022/09/09 06:32:49;;;;;;;;;;;;;;;25.05;nan;100865.50;5050198;28;982;-34
2022/09/09 06:35:35;;;;;;;;;;;;;;;25.18;nan;100877.69;5077352;28;1271;-35
2022/09/09 06:38:22;;;;;;;;;;;;;;;25.16;nan;100879.63;5048489;28;1902;-33
2022/09/09 06:41:08;;;;;;;;;;;;;;;25.20;nan;100891.72;5050135;28;1281;-33
2022/09/09 06:43:55;;;;;;;;;;;;;;;25.26;nan;100885.06;5052074;28;1122;-36
2022/09/09 06:46:43;;;;;;;;;;;;;;;25.29;nan;100890.16;5051614;28;1328;-36
2022/09/09 06:49:28;;;;;;;;;;;;;;;25.26;nan;100888.53;5052217;28;1323;-36
2022/09/09 06:52:14;;;;;;;;;;;;;;;25.30;nan;100887.34;5052505;28;986;-35
2022/09/09 06:54:59;;;;;;;;;;;;;;;25.37;nan;100887.69;5053647;28;1294;-35
2022/09/09 06:57:44;;;;;;;;;;;;;;;25.45;nan;100887.88;5053502;28;1980;-36
2022/09/09 07:00:30;;;;;;;;;;;;;;;25.49;nan;100887.56;5053384;28;1298;-38
2022/09/09 07:03:15;;;;;;;;;;;;;;;25.47;nan;100888.63;5053102;28;914;-37
2022/09/09 07:06:01;;;;;;;;;;;;;;;25.40;nan;100885.63;5053049;28;1272;-36
2022/09/09 07:08:53;;;;;;;;;;;;;;;25.36;nan;100886.81;5053043;28;1122;-37
2022/09/09 07:11:54;;;;;;;;;;;;;;;25.35;nan;100882.47;5052205;28;692;-36
2022/09/09 07:14:39;;;;;;;;;;;;;;;25.59;nan;100886.78;5051797;28;1240;-36
2022/09/09 07:17:25;;;;;;;;;;;;;;;25.81;nan;100881.31;5051224;28;1237;-33
2022/09/09 07:20:11;;;;;;;;;;;;;;;25.84;nan;100881.91;5052927;28;1217;-33
2022/09/09 07:22:57;;;;;;;;;;;;;;;25.82;nan;100880.34;5052959;28;633;-34
2022/09/09 07:25:45;;;;;;;;;;;;;;;25.71;nan;100880.41;5052359;28;1244;-45
2022/09/09 07:28:31;;;;;;;;;;;;;;;25.78;nan;100881.56;5079826;28;1036;-34
2022/09/09 07:31:17;;;;;;;;;;;;;;;25.65;nan;100878.25;5052060;28;1272;-37
2022/09/09 07:34:03;;;;;;;;;;;;;;;25.83;nan;100887.38;5052584;28;1264;-38
2022/09/09 07:36:49;;;;;;;;;;;;;;;25.73;nan;100884.66;5052536;28;645;-36
2022/09/09 07:39:34;;;;;;;;;;;;;;;25.71;nan;100891.09;5052573;28;1973;-38
2022/09/09 07:42:19;;;;;;;;;;;;;;;25.65;nan;100902.28;5052692;28;656;-41
2022/09/09 07:45:05;;;;;;;;;;;;;;;25.70;nan;100894.72;5053003;28;1327;-43
2022/09/09 07:47:50;;;;;;;;;;;;;;;25.76;nan;100903.06;5050777;28;1410;-45
2022/09/09 07:50:37;;;;;;;;;;;;;;;25.76;nan;100903.06;5051379;28;1307;-46
2022/09/09 07:53:22;;;;;;;;;;;;;;;25.83;nan;100906.91;5052016;28;1210;-35
2022/09/09 07:56:10;;;;;;;;;;;;;;;25.79;nan;100905.47;5050134;28;1371;-35
2022/09/09 07:58:56;;;;;;;;;;;;;;;25.75;nan;100908.50;5051880;28;1909;-35
2022/09/09 08:01:53;;;;;;;;;;;;;;;25.84;nan;100911.25;5050368;28;688;-34
2022/09/09 08:04:38;;;;;;;;;;;;;;;25.88;nan;100909.19;5079191;28;1243;-34
2022/09/09 08:07:24;;;;;;;;;;;;;;;25.85;nan;100918.31;5051579;28;637;-38
2022/09/09 08:10:09;;;;;;;;;;;;;;;25.84;nan;100913.94;5052217;28;1248;-36
2022/09/09 08:12:55;;;;;;;;;;;;;;;25.96;nan;100906.75;5051019;28;684;-35
2022/09/09 08:16:04;;;;;;;;;;;;;;;26.07;nan;100910.19;5052388;28;1291;-35
2022/09/09 08:18:51;;;;;;;;;;;;;;;26.05;nan;100916.63;5052247;28;1906;-35
2022/09/09 08:21:38;;;;;;;;;;;;;;;26.32;nan;100918.78;5051968;28;629;-33
2022/09/09 08:24:24;;;;;;;;;;;;;;;26.31;nan;100917.09;5052246;28;1212;-35
2022/09/09 08:27:09;;;;;;;;;;;;;;;26.36;nan;100913.03;5051632;28;621;-35
2022/09/09 08:29:55;;;;;;;;;;;;;;;26.33;nan;100921.31;5051333;28;1241;-34
2022/09/09 08:32:41;;;;;;;;;;;;;;;26.34;nan;100922.16;5051926;28;710;-35
2022/09/09 08:35:32;;;;;;;;;;;;;;;26.38;nan;100924.44;5051392;28;1226;-34
2022/09/09 08:38:18;;;;;;;;;;;;;;;26.41;nan;100928.69;5051723;28;1967;-32
2022/09/09 08:41:10;;;;;;;;;;;;;;;26.39;nan;100931.47;5052156;28;1248;-42
2022/09/09 08:44:05;;;;;;;;;;;;;;;26.45;nan;100925.59;5055231;28;954;-42
2022/09/09 08:46:58;;;;;;;;;;;;;;;26.45;nan;100925.59;5055651;28;1362;-40
2022/09/09 08:50:16;;;;;;;;;;;;;;;26.43;nan;100932.06;5056177;28;1260;-45
2022/09/09 08:53:08;;;;;;;;;;;;;;;26.43;nan;100932.91;5062844;28;1078;-45
2022/09/09 08:56:01;;;;;;;;;;;;;;;26.45;nan;100932.75;5051513;28;1435;-45
2022/09/09 08:58:48;;;;;;;;;;;;;;;26.48;nan;100936.00;5050170;28;1977;-44
2022/09/09 09:01:33;;;;;;;;;;;;;;;26.52;nan;100940.13;5054926;28;991;-46
2022/09/09 09:04:22;;;;;;;;;;;;;;;26.59;nan;100943.97;5055492;28;1180;-42
2022/09/09 09:07:25;;;;;;;;;;;;;;;26.72;nan;100954.41;5054986;28;1059;-43
2022/09/09 09:10:30;;;;;;;;;;;;;;;26.67;nan;100953.97;5055140;28;1224;-38
2022/09/09 09:13:28;;;;;;;;;;;;;;;26.74;nan;100962.31;5055103;28;991;-36
2022/09/09 09:16:29;;;;;;;;;;;;;;;26.72;nan;100958.94;5054603;28;1224;-35
2022/09/09 09:19:15;;;;;;;;;;;;;;;26.71;nan;100962.56;5054826;28;1967;-35
2022/09/09 09:22:06;;;;;;;;;;;;;;;26.63;nan;100964.06;5054779;28;987;-34
2022/09/09 09:24:56;;;;;;;;;;;;;;;26.70;nan;100963.53;5054899;28;1220;-35
2022/09/09 09:27:51;;;;;;;;;;;;;;;26.71;nan;100962.56;5054441;28;1051;-36
2022/09/09 09:30:41;;;;;;;;;;;;;;;26.75;nan;100972.84;5053903;28;1252;-35
2022/09/09 09:33:31;;;;;;;;;;;;;;;26.77;nan;100978.06;5054765;28;1053;-36
2022/09/09 09:36:16;;;;;;;;;;;;;;;26.77;nan;100978.91;5052117;28;1316;-35
2022/09/09 09:39:04;;;;;;;;;;;;;;;26.81;nan;100984.88;5054245;28;1981;-40
2022/09/09 09:42:13;;;;;;;;;;;;;;;26.81;nan;100984.88;5054346;28;1004;-40
2022/09/09 09:45:18;;;;;;;;;;;;;;;26.91;nan;100983.06;5054319;28;1240;-43
2022/09/09 09:48:09;;;;;;;;;;;;;;;27.13;nan;100977.53;5053742;28;1218;-42
2022/09/09 09:51:07;;;;;;;;;;;;;;;27.07;nan;100970.91;5080020;28;1291;-44
2022/09/09 09:53:53;;;;;;;;;;;;;;;26.98;nan;100981.56;5052824;28;1034;-44
2022/09/09 09:56:40;;;;;;;;;;;;;;;27.10;nan;100975.13;5053243;28;1035;-45
2022/09/09 09:59:28;;;;;;;;;;;;;;;27.08;nan;100969.09;5052559;28;1906;-34
2022/09/09 10:02:26;;;;;;;;;;;;;;;27.00;nan;100967.06;5054465;28;589;-38
2022/09/09 10:05:21;;;;;;;;;;;;;;;26.99;nan;100981.41;5053317;28;1192;-36
2022/09/09 10:08:12;;;;;;;;;;;;;;;27.08;nan;100972.56;5052858;28;677;-37
2022/09/09 10:11:07;;;;;;;;;;;;;;;27.14;nan;100979.25;5052375;28;1249;-35
2022/09/09 10:14:11;;;;;;;;;;;;;;;27.13;nan;100977.53;5052672;28;1001;-37
2022/09/09 10:16:59;;;;;;;;;;;;;;;27.16;nan;100974.59;5053057;28;988;-38
2022/09/09 10:20:02;;;;;;;;;;;;;;;27.13;nan;100975.72;5053824;28;1914;-35
2022/09/09 10:22:50;;;;;;;;;;;;;;;27.14;nan;100977.41;5053638;28;610;-38
2022/09/09 10:25:55;;;;;;;;;;;;;;;27.06;nan;100979.91;5052841;28;1220;-37
2022/09/09 10:28:43;;;;;;;;;;;;;;;27.08;nan;100987.81;5053310;28;1011;-37
2022/09/09 10:31:39;;;;;;;;;;;;;;;27.07;nan;100984.28;5052151;28;1042;-37
2022/09/09 10:34:25;;;;;;;;;;;;;;;27.22;nan;100978.53;5052900;28;1240;-38
2022/09/09 10:37:23;;;;;;;;;;;;;;;27.28;nan;100978.84;5051669;28;747;-38
2022/09/09 10:40:19;;;;;;;;;;;;;;;27.31;nan;100981.25;5052330;28;1910;-35
2022/09/09 10:43:08;;;;;;;;;;;;;;;27.34;nan;100982.78;5053205;28;685;-37
2022/09/09 10:46:06;;;;;;;;;;;;;;;27.29;nan;100985.91;5052023;28;1253;-38
2022/09/09 10:48:54;;;;;;;;;;;;;;;27.15;nan;100984.44;5052785;28;938;-38
2022/09/09 10:51:43;;;;;;;;;;;;;;;27.25;nan;100971.09;5052358;28;992;-36
2022/09/09 10:54:35;;;;;;;;;;;;;;;27.43;nan;100974.81;5052995;28;1245;-36
2022/09/09 10:57:24;;;;;;;;;;;;;;;27.33;nan;100981.94;5052199;28;909;-37
2022/09/09 11:00:19;;;;;;;;;;;;;;;27.18;nan;100982.50;5051994;28;1911;-37
2022/09/09 11:03:06;;;;;;;;;;;;;;;27.17;nan;100972.75;5052580;28;641;-36
2022/09/09 11:05:56;;;;;;;;;;;;;;;27.28;nan;100978.84;5051280;28;1359;-36
2022/09/09 11:08:42;;;;;;;;;;;;;;;27.38;nan;100984.22;5052322;28;1128;-37
2022/09/09 11:11:32;;;;;;;;;;;;;;;27.30;nan;100970.69;5050712;28;976;-35
2022/09/09 11:14:21;;;;;;;;;;;;;;;27.21;nan;100966.16;5052594;28;1310;-35
2022/09/09 11:17:12;;;;;;;;;;;;;;;27.30;nan;100970.69;5051828;28;1050;-33
2022/09/09 11:19:58;;;;;;;;;;;;;;;27.37;nan;100971.81;5050923;28;1910;-35
2022/09/09 11:22:48;;;;;;;;;;;;;;;27.49;nan;100976.09;5052343;28;649;-35
2022/09/09 11:25:39;;;;;;;;;;;;;;;27.59;nan;100972.47;5052255;28;1216;-35
2022/09/09 11:28:44;;;;;;;;;;;;;;;27.63;nan;100957.81;5052362;28;1127;-34
2022/09/09 11:31:48;;;;;;;;;;;;;;;27.57;nan;100966.38;5051722;28;991;-37
2022/09/09 11:34:34;;;;;;;;;;;;;;;27.66;nan;100975.44;5051278;28;1315;-36
2022/09/09 11:37:20;;;;;;;;;;;;;;;27.60;nan;100979.50;5051967;28;632;-35
2022/09/09 11:40:15;;;;;;;;;;;;;;;27.47;nan;100978.94;5052213;28;1902;-34
2022/09/09 11:43:05;;;;;;;;;;;;;;;27.53;nan;100980.19;5050158;28;1211;-35
2022/09/09 11:45:58;;;;;;;;;;;;;;;27.43;nan;100988.19;5046412;28;1387;-36
2022/09/09 11:48:57;;;;;;;;;;;;;;;27.35;nan;100977.31;5047802;28;1191;-43
2022/09/09 11:51:42;;;;;;;;;;;;;;;27.43;nan;100977.50;5047878;28;975;-41
2022/09/09 11:54:29;;;;;;;;;;;;;;;27.39;nan;100976.03;5047525;28;1256;-41
2022/09/09 11:57:35;;;;;;;;;;;;;;;27.41;nan;100978.59;5046845;28;925;-42
2022/09/09 12:00:29;;;;;;;;;;;;;;;27.31;nan;100977.72;5074114;28;1902;-41
2022/09/09 12:03:34;;;;;;;;;;;;;;;27.29;nan;100974.34;5047604;28;1076;-43
2022/09/09 12:06:33;;;;;;;;;;;;;;;27.30;nan;100987.56;5047265;28;1374;-42
2022/09/09 12:09:23;;;;;;;;;;;;;;;27.33;nan;100984.63;5046515;28;1276;-44
2022/09/09 12:12:11;;;;;;;;;;;;;;;27.44;nan;100989.91;5047262;28;1038;-46
2022/09/09 12:15:09;;;;;;;;;;;;;;;27.32;nan;100984.78;5048029;28;1288;-41
2022/09/09 12:18:02;;;;;;;;;;;;;;;27.31;nan;100988.41;5050658;28;1033;-41
2022/09/09 12:20:56;;;;;;;;;;;;;;;27.32;nan;100982.94;5050958;28;1906;-42
2022/09/09 12:23:49;;;;;;;;;;;;;;;27.56;nan;100980.78;5051499;28;1146;-41
2022/09/09 12:26:34;;;;;;;;;;;;;;;27.45;nan;100983.56;5049651;28;1013;-41
2022/09/09 12:29:29;;;;;;;;;;;;;;;27.39;nan;100984.06;5049793;28;1390;-42
2022/09/09 12:32:22;;;;;;;;;;;;;;;27.45;nan;100978.19;5049646;28;986;-43
2022/09/09 12:35:11;;;;;;;;;;;;;;;27.56;nan;100966.53;5048460;28;1845;-38
2022/09/09 12:38:02;;;;;;;;;;;;;;;27.53;nan;100966.81;5047113;28;1168;-42
2022/09/09 12:40:55;;;;;;;;;;;;;;;27.57;nan;100978.94;5046673;28;1995;-42
2022/09/09 12:43:40;;;;;;;;;;;;;;;27.52;nan;100965.97;5049457;28;1107;-42
2022/09/09 12:46:36;;;;;;;;;;;;;;;27.53;nan;100974.84;5047714;28;1622;-42
2022/09/09 12:49:34;;;;;;;;;;;;;;;27.56;nan;100972.75;5048150;28;1528;-39
2022/09/09 12:52:24;;;;;;;;;;;;;;;27.38;nan;100969.03;5047007;28;973;-41
2022/09/09 12:55:18;;;;;;;;;;;;;;;27.47;nan;100978.94;5048079;28;1355;-41
2022/09/09 12:58:05;;;;;;;;;;;;;;;27.57;nan;100974.41;5047592;28;955;-42
2022/09/09 13:00:52;;;;;;;;;;;;;;;27.54;nan;100958.63;5046375;28;1906;-42
2022/09/09 13:03:42;;;;;;;;;;;;;;;27.61;nan;100962.47;5048672;28;1195;-40
2022/09/09 13:06:29;;;;;;;;;;;;;;;27.64;nan;100961.31;5045461;28;1053;-42
2022/09/09 13:09:15;;;;;;;;;;;;;;;27.62;nan;100961.47;5046051;28;1288;-41
2022/09/09 13:12:10;;;;;;;;;;;;;;;27.66;nan;100959.38;5045455;28;1052;-38
2022/09/09 13:14:56;;;;;;;;;;;;;;;27.62;nan;100956.13;5047196;28;1378;-42
2022/09/09 13:17:42;;;;;;;;;;;;;;;27.59;nan;100955.56;5046870;28;1175;-41
2022/09/09 13:20:28;;;;;;;;;;;;;;;27.72;nan;100961.50;5060301;28;1997;-42
2022/09/09 13:23:15;;;;;;;;;;;;;;;27.82;nan;100964.16;5046148;28;1049;-41
2022/09/09 13:26:04;;;;;;;;;;;;;;;27.85;nan;100967.41;5047928;28;1397;-39
2022/09/09 13:28:50;;;;;;;;;;;;;;;27.77;nan;100966.41;5045893;28;1077;-41
2022/09/09 13:31:36;;;;;;;;;;;;;;;27.71;nan;100964.28;5074185;28;1100;-39
2022/09/09 13:34:30;;;;;;;;;;;;;;;27.79;nan;100956.41;5043184;28;1616;-41
2022/09/09 13:37:25;;;;;;;;;;;;;;;27.77;nan;100961.06;5048011;28;938;-41
2022/09/09 13:40:18;;;;;;;;;;;;;;;27.66;nan;100952.16;5047694;28;1914;-39
2022/09/09 13:43:03;;;;;;;;;;;;;;;27.53;nan;100948.94;5047157;28;997;-41
2022/09/09 13:45:56;;;;;;;;;;;;;;;27.65;nan;100955.84;5046477;28;1268;-42
2022/09/09 13:48:41;;;;;;;;;;;;;;;27.65;nan;100953.19;5047997;28;1093;-42
2022/09/09 13:51:30;;;;;;;;;;;;;;;27.60;nan;100958.09;5047026;28;1072;-43
2022/09/09 13:54:17;;;;;;;;;;;;;;;27.46;nan;100955.81;5048397;28;1264;-40
2022/09/09 13:57:04;;;;;;;;;;;;;;;27.53;nan;100956.97;5047220;28;982;-42
2022/09/09 13:59:51;;;;;;;;;;;;;;;27.53;nan;100940.91;5060493;28;1910;-43
2022/09/09 14:02:54;;;;;;;;;;;;;;;27.58;nan;100957.38;5046179;28;1050;-42
2022/09/09 14:05:40;;;;;;;;;;;;;;;27.52;nan;100968.66;5046684;28;1370;-40
2022/09/09 14:08:26;;;;;;;;;;;;;;;27.44;nan;100955.13;5038547;28;1268;-44
2022/09/09 14:11:12;;;;;;;;;;;;;;;27.49;nan;100955.53;5044539;28;1415;-45
2022/09/09 14:13:58;;;;;;;;;;;;;;;27.34;nan;100946.19;5029680;28;1295;-42
2022/09/09 14:16:44;;;;;;;;;;;;;;;27.22;nan;100941.09;5034983;28;983;-43
2022/09/09 14:19:30;;;;;;;;;;;;;;;27.38;nan;100944.09;5045188;28;1988;-44
2022/09/09 14:22:16;;;;;;;;;;;;;;;27.37;nan;100961.97;5047764;28;696;-44
2022/09/09 14:25:03;;;;;;;;;;;;;;;27.21;nan;100961.66;5042692;28;1256;-44
2022/09/09 14:27:51;;;;;;;;;;;;;;;27.32;nan;100974.94;5029830;28;992;-46
2022/09/09 14:30:37;;;;;;;;;;;;;;;27.45;nan;100980.06;5036328;28;1323;-46
2022/09/09 14:33:22;;;;;;;;;;;;;;;27.55;nan;100976.41;5042709;28;1137;-47
2022/09/09 14:36:08;;;;;;;;;;;;;;;27.66;nan;100972.75;5039443;28;1304;-46
2022/09/09 14:38:54;;;;;;;;;;;;;;;27.45;nan;100970.16;5042041;28;1028;-47
2022/09/09 14:41:39;;;;;;;;;;;;;;;27.44;nan;100973.00;5035077;28;1938;-45
2022/09/09 14:44:24;;;;;;;;;;;;;;;27.35;nan;100982.69;5034455;28;1288;-47
2022/09/09 14:47:09;;;;;;;;;;;;;;;27.32;nan;101000.81;5034706;28;1687;-47
2022/09/09 14:49:55;;;;;;;;;;;;;;;27.04;nan;101007.75;5033183;28;1284;-46
2022/09/09 14:52:40;;;;;;;;;;;;;;;27.03;nan;100990.88;5035201;28;841;-45
2022/09/09 14:55:28;;;;;;;;;;;;;;;27.31;nan;100978.56;5039816;28;1272;-47
2022/09/09 14:58:13;;;;;;;;;;;;;;;27.29;nan;100991.25;5032772;28;885;-35
2022/09/09 15:01:03;;;;;;;;;;;;;;;27.09;nan;100984.13;5032493;28;1992;-37
2022/09/09 15:03:52;;;;;;;;;;;;;;;27.12;nan;100973.16;5035436;28;885;-35
2022/09/09 15:06:39;;;;;;;;;;;;;;;27.45;nan;100986.22;5039067;28;1378;-35
2022/09/09 15:09:24;;;;;;;;;;;;;;;27.46;nan;100993.28;5043764;28;1328;-34